sensor_id;sensor_type;location;lat;lon;timestamp;pressure;altitude;pressure_sealevel;temperature
75273;BMP280;63869;52.344;16.928;2023-06-26T00:01:49;100839.13;;;17.69
75273;BMP280;63869;52.344;16.928;2023-06-26T00:04:14;100832.53;;;17.70
75273;BMP280;63869;52.344;16.928;2023-06-26T00:06:40;100842.13;;;17.71
75273;BMP280;63869;52.344;16.928;2023-06-26T00:09:07;100832.06;;;17.71
75273;BMP280;63869;52.344;16.928;2023-06-26T00:11:32;100836.28;;;17.72
75273;BMP280;63869;52.344;16.928;2023-06-26T00:14:01;100840.19;;;17.71
75273;BMP280;63869;52.344;16.928;2023-06-26T00:16:27;100834.78;;;17.71
75273;BMP280;63869;52.344;16.928;2023-06-26T00:18:53;100830.88;;;17.72
75273;BMP280;63869;52.344;16.928;2023-06-26T00:21:19;100826.22;;;17.73
75273;BMP280;63869;52.344;16.928;2023-06-26T00:23:45;100833.72;;;17.78
75273;BMP280;63869;52.344;16.928;2023-06-26T00:26:11;100827.88;;;17.70
75273;BMP280;63869;52.344;16.928;2023-06-26T00:28:36;100837.31;;;17.75
75273;BMP280;63869;52.344;16.928;2023-06-26T00:31:01;100834.03;;;17.71
75273;BMP280;63869;52.344;16.928;2023-06-26T00:33:27;100830.41;;;17.74
75273;BMP280;63869;52.344;16.928;2023-06-26T00:35:52;100827.41;;;17.72
75273;BMP280;63869;52.344;16.928;2023-06-26T00:38:19;100830.56;;;17.70
75273;BMP280;63869;52.344;16.928;2023-06-26T00:40:44;100822.91;;;17.69
75273;BMP280;63869;52.344;16.928;2023-06-26T00:43:09;100824.56;;;17.66
75273;BMP280;63869;52.344;16.928;2023-06-26T00:45:35;100821.88;;;17.66
75273;BMP280;63869;52.344;16.928;2023-06-26T00:48:01;100821.56;;;17.64
75273;BMP280;63869;52.344;16.928;2023-06-26T00:50:27;100823.53;;;17.64
75273;BMP280;63869;52.344;16.928;2023-06-26T00:52:53;100820.50;;;17.62
75273;BMP280;63869;52.344;16.928;2023-06-26T00:55:20;100818.09;;;17.55
75273;BMP280;63869;52.344;16.928;2023-06-26T00:57:45;100826.22;;;17.55
75273;BMP280;63869;52.344;16.928;2023-06-26T01:00:11;100827.88;;;17.52
75273;BMP280;63869;52.344;16.928;2023-06-26T01:02:38;100828.16;;;17.45
75273;BMP280;63869;52.344;16.928;2023-06-26T01:05:05;100819.28;;;17.35
75273;BMP280;63869;52.344;16.928;2023-06-26T01:07:32;100816.41;;;17.30
75273;BMP280;63869;52.344;16.928;2023-06-26T01:10:04;100818.25;;;17.24
75273;BMP280;63869;52.344;16.928;2023-06-26T01:12:32;100810.28;;;17.20
75273;BMP280;63869;52.344;16.928;2023-06-26T01:14:58;100820.78;;;17.18
75273;BMP280;63869;52.344;16.928;2023-06-26T01:17:24;100819.41;;;17.14
75273;BMP280;63869;52.344;16.928;2023-06-26T01:19:50;100819.84;;;17.12
75273;BMP280;63869;52.344;16.928;2023-06-26T01:22:39;100818.78;;;17.10
75273;BMP280;63869;52.344;16.928;2023-06-26T01:25:33;100818.78;;;17.00
75273;BMP280;63869;52.344;16.928;2023-06-26T01:28:05;100818.16;;;16.87
75273;BMP280;63869;52.344;16.928;2023-06-26T01:30:32;100821.63;;;16.88
75273;BMP280;63869;52.344;16.928;2023-06-26T01:33:00;100815.28;;;16.82
75273;BMP280;63869;52.344;16.928;2023-06-26T01:35:26;100816.47;;;16.81
75273;BMP280;63869;52.344;16.928;2023-06-26T01:37:51;100812.25;;;16.80
75273;BMP280;63869;52.344;16.928;2023-06-26T01:40:17;100814.97;;;16.80
75273;BMP280;63869;52.344;16.928;2023-06-26T01:42:42;100815.72;;;16.80
75273;BMP280;63869;52.344;16.928;2023-06-26T01:45:25;100813.78;;;16.81
75273;BMP280;63869;52.344;16.928;2023-06-26T01:47:52;100801.19;;;16.78
75273;BMP280;63869;52.344;16.928;2023-06-26T01:50:26;100802.97;;;16.72
75273;BMP280;63869;52.344;16.928;2023-06-26T01:55:47;100798.88;;;16.67
75273;BMP280;63869;52.344;16.928;2023-06-26T01:58:14;100790.63;;;16.62
75273;BMP280;63869;52.344;16.928;2023-06-26T02:00:42;100785.38;;;16.58
75273;BMP280;63869;52.344;16.928;2023-06-26T02:03:07;100789.69;;;16.55
75273;BMP280;63869;52.344;16.928;2023-06-26T02:05:32;100789.06;;;16.51
75273;BMP280;63869;52.344;16.928;2023-06-26T02:07:58;100781.84;;;16.48
75273;BMP280;63869;52.344;16.928;2023-06-26T02:10:23;100788.59;;;16.44
75273;BMP280;63869;52.344;16.928;2023-06-26T02:12:49;100789.94;;;16.39
75273;BMP280;63869;52.344;16.928;2023-06-26T02:15:14;100783.03;;;16.38
75273;BMP280;63869;52.344;16.928;2023-06-26T02:17:39;100777.19;;;16.40
75273;BMP280;63869;52.344;16.928;2023-06-26T02:20:05;100775.47;;;16.33
75273;BMP280;63869;52.344;16.928;2023-06-26T02:22:31;100777.91;;;16.31
75273;BMP280;63869;52.344;16.928;2023-06-26T02:24:56;100784.91;;;16.29
75273;BMP280;63869;52.344;16.928;2023-06-26T02:27:22;100779.97;;;16.27
75273;BMP280;63869;52.344;16.928;2023-06-26T02:29:47;100785.06;;;16.25
75273;BMP280;63869;52.344;16.928;2023-06-26T02:32:13;100783.38;;;16.18
75273;BMP280;63869;52.344;16.928;2023-06-26T02:34:38;100780.50;;;16.13
75273;BMP280;63869;52.344;16.928;2023-06-26T02:37:04;100783.03;;;16.16
75273;BMP280;63869;52.344;16.928;2023-06-26T02:39:31;100778.91;;;16.25
75273;BMP280;63869;52.344;16.928;2023-06-26T02:41:57;100783.13;;;16.26
75273;BMP280;63869;52.344;16.928;2023-06-26T02:44:22;100783.28;;;16.31
75273;BMP280;63869;52.344;16.928;2023-06-26T02:46:47;100781.63;;;16.34
75273;BMP280;63869;52.344;16.928;2023-06-26T02:49:12;100786.47;;;16.39
75273;BMP280;63869;52.344;16.928;2023-06-26T02:51:38;100781.41;;;16.41
75273;BMP280;63869;52.344;16.928;2023-06-26T02:54:03;100786.31;;;16.42
75273;BMP280;63869;52.344;16.928;2023-06-26T02:56:28;100771.34;;;16.41
75273;BMP280;63869;52.344;16.928;2023-06-26T02:58:57;100775.81;;;16.35
75273;BMP280;63869;52.344;16.928;2023-06-26T03:01:23;100772.78;;;16.33
75273;BMP280;63869;52.344;16.928;2023-06-26T03:03:48;100772.78;;;16.33
75273;BMP280;63869;52.344;16.928;2023-06-26T03:06:14;100765.44;;;16.34
75273;BMP280;63869;52.344;16.928;2023-06-26T03:08:40;100765.28;;;16.37
75273;BMP280;63869;52.344;16.928;2023-06-26T03:11:06;100773.31;;;16.41
75273;BMP280;63869;52.344;16.928;2023-06-26T03:13:33;100774.94;;;16.38
75273;BMP280;63869;52.344;16.928;2023-06-26T03:15:58;100772.78;;;16.33
75273;BMP280;63869;52.344;16.928;2023-06-26T03:18:24;100770.41;;;16.35
75273;BMP280;63869;52.344;16.928;2023-06-26T03:20:50;100773.09;;;16.35
75273;BMP280;63869;52.344;16.928;2023-06-26T03:23:16;100765.94;;;16.41
75273;BMP280;63869;52.344;16.928;2023-06-26T03:25:41;100761.59;;;16.44
75273;BMP280;63869;52.344;16.928;2023-06-26T03:28:07;100760.88;;;16.52
75273;BMP280;63869;52.344;16.928;2023-06-26T03:30:32;100764.06;;;16.60
75273;BMP280;63869;52.344;16.928;2023-06-26T03:32:57;100758.81;;;16.66
75273;BMP280;63869;52.344;16.928;2023-06-26T03:35:22;100760.47;;;16.63
75273;BMP280;63869;52.344;16.928;2023-06-26T03:37:49;100759.72;;;16.63
75273;BMP280;63869;52.344;16.928;2023-06-26T03:40:14;100769.94;;;16.68
75273;BMP280;63869;52.344;16.928;2023-06-26T03:42:40;100768.44;;;16.76
75273;BMP280;63869;52.344;16.928;2023-06-26T03:45:05;100771.06;;;16.88
75273;BMP280;63869;52.344;16.928;2023-06-26T03:47:32;100769.28;;;17.04
75273;BMP280;63869;52.344;16.928;2023-06-26T03:49:57;100776.03;;;17.17
75273;BMP280;63869;52.344;16.928;2023-06-26T03:52:22;100773.06;;;17.24
75273;BMP280;63869;52.344;16.928;2023-06-26T03:54:48;100769.00;;;17.38
75273;BMP280;63869;52.344;16.928;2023-06-26T03:57:14;100771.09;;;17.52
75273;BMP280;63869;52.344;16.928;2023-06-26T03:59:39;100771.06;;;17.61
75273;BMP280;63869;52.344;16.928;2023-06-26T04:02:05;100776.78;;;17.72
75273;BMP280;63869;52.344;16.928;2023-06-26T04:04:30;100764.00;;;17.82
75273;BMP280;63869;52.344;16.928;2023-06-26T04:06:55;100768.78;;;17.96
75273;BMP280;63869;52.344;16.928;2023-06-26T04:09:21;100772.81;;;18.01
75273;BMP280;63869;52.344;16.928;2023-06-26T04:11:46;100776.84;;;18.05
75273;BMP280;63869;52.344;16.928;2023-06-26T04:14:11;100771.97;;;18.18
75273;BMP280;63869;52.344;16.928;2023-06-26T04:16:37;100774.81;;;18.24
75273;BMP280;63869;52.344;16.928;2023-06-26T04:19:03;100772.22;;;18.39
75273;BMP280;63869;52.344;16.928;2023-06-26T04:21:30;100772.44;;;18.50
75273;BMP280;63869;52.344;16.928;2023-06-26T04:23:55;100775.88;;;18.60
75273;BMP280;63869;52.344;16.928;2023-06-26T04:26:20;100769.19;;;18.70
75273;BMP280;63869;52.344;16.928;2023-06-26T04:28:45;100767.16;;;18.79
75273;BMP280;63869;52.344;16.928;2023-06-26T04:31:11;100766.34;;;18.88
75273;BMP280;63869;52.344;16.928;2023-06-26T04:33:37;100764.91;;;19.02
75273;BMP280;63869;52.344;16.928;2023-06-26T04:36:03;100763.91;;;19.14
75273;BMP280;63869;52.344;16.928;2023-06-26T04:38:30;100766.66;;;19.28
75273;BMP280;63869;52.344;16.928;2023-06-26T04:40:56;100770.34;;;19.40
75273;BMP280;63869;52.344;16.928;2023-06-26T04:43:22;100766.78;;;19.49
75273;BMP280;63869;52.344;16.928;2023-06-26T04:45:47;100766.50;;;19.61
75273;BMP280;63869;52.344;16.928;2023-06-26T04:48:13;100769.94;;;19.76
75273;BMP280;63869;52.344;16.928;2023-06-26T04:50:38;100774.34;;;19.89
75273;BMP280;63869;52.344;16.928;2023-06-26T04:53:03;100773.94;;;19.96
75273;BMP280;63869;52.344;16.928;2023-06-26T04:55:29;100770.94;;;20.08
75273;BMP280;63869;52.344;16.928;2023-06-26T04:57:55;100771.84;;;20.20
75273;BMP280;63869;52.344;16.928;2023-06-26T05:00:20;100767.78;;;20.30
75273;BMP280;63869;52.344;16.928;2023-06-26T05:02:46;100775.44;;;20.46
75273;BMP280;63869;52.344;16.928;2023-06-26T05:05:13;100773.13;;;20.59
75273;BMP280;63869;52.344;16.928;2023-06-26T05:07:40;100772.50;;;20.70
75273;BMP280;63869;52.344;16.928;2023-06-26T05:10:06;100774.13;;;20.82
75273;BMP280;63869;52.344;16.928;2023-06-26T05:12:33;100783.91;;;20.94
75273;BMP280;63869;52.344;16.928;2023-06-26T05:14:58;100769.91;;;21.01
75273;BMP280;63869;52.344;16.928;2023-06-26T05:17:24;100765.88;;;21.17
75273;BMP280;63869;52.344;16.928;2023-06-26T05:19:49;100774.66;;;21.27
75273;BMP280;63869;52.344;16.928;2023-06-26T05:22:15;100770.97;;;21.35
75273;BMP280;63869;52.344;16.928;2023-06-26T05:24:42;100776.78;;;21.43
75273;BMP280;63869;52.344;16.928;2023-06-26T05:27:10;100755.78;;;21.49
75273;BMP280;63869;52.344;16.928;2023-06-26T05:29:37;100767.47;;;21.55
75273;BMP280;63869;52.344;16.928;2023-06-26T05:32:03;100762.81;;;21.61
75273;BMP280;63869;52.344;16.928;2023-06-26T05:34:29;100760.38;;;21.69
75273;BMP280;63869;52.344;16.928;2023-06-26T05:37:00;100763.91;;;21.75
75273;BMP280;63869;52.344;16.928;2023-06-26T05:39:26;100760.47;;;21.80
75273;BMP280;63869;52.344;16.928;2023-06-26T05:41:51;100761.25;;;21.86
75273;BMP280;63869;52.344;16.928;2023-06-26T05:44:17;100762.56;;;21.96
75273;BMP280;63869;52.344;16.928;2023-06-26T05:46:43;100760.63;;;22.02
75273;BMP280;63869;52.344;16.928;2023-06-26T05:49:09;100754.97;;;22.11
75273;BMP280;63869;52.344;16.928;2023-06-26T05:51:34;100755.25;;;22.19
75273;BMP280;63869;52.344;16.928;2023-06-26T05:54:00;100758.25;;;22.26
75273;BMP280;63869;52.344;16.928;2023-06-26T05:56:26;100762.25;;;22.31
75273;BMP280;63869;52.344;16.928;2023-06-26T05:58:52;100756.84;;;22.37
75273;BMP280;63869;52.344;16.928;2023-06-26T06:01:17;100750.16;;;22.43
75273;BMP280;63869;52.344;16.928;2023-06-26T06:03:45;100747.25;;;22.52
75273;BMP280;63869;52.344;16.928;2023-06-26T06:06:12;100752.47;;;22.56
75273;BMP280;63869;52.344;16.928;2023-06-26T06:08:37;100745.50;;;22.55
75273;BMP280;63869;52.344;16.928;2023-06-26T06:11:03;100745.97;;;22.48
75273;BMP280;63869;52.344;16.928;2023-06-26T06:13:28;100749.00;;;22.55
75273;BMP280;63869;52.344;16.928;2023-06-26T06:15:53;100745.03;;;22.62
75273;BMP280;63869;52.344;16.928;2023-06-26T06:18:21;100743.56;;;22.72
75273;BMP280;63869;52.344;16.928;2023-06-26T06:20:47;100733.16;;;22.76
75273;BMP280;63869;52.344;16.928;2023-06-26T06:23:12;100738.16;;;22.83
75273;BMP280;63869;52.344;16.928;2023-06-26T06:25:37;100739.16;;;22.91
75273;BMP280;63869;52.344;16.928;2023-06-26T06:28:04;100741.66;;;23.00
75273;BMP280;63869;52.344;16.928;2023-06-26T06:30:29;100734.94;;;23.07
75273;BMP280;63869;52.344;16.928;2023-06-26T06:32:55;100727.53;;;23.13
75273;BMP280;63869;52.344;16.928;2023-06-26T06:35:20;100728.50;;;23.21
75273;BMP280;63869;52.344;16.928;2023-06-26T06:37:46;100732.75;;;23.28
75273;BMP280;63869;52.344;16.928;2023-06-26T06:40:11;100737.72;;;23.35
75273;BMP280;63869;52.344;16.928;2023-06-26T06:42:37;100727.50;;;23.41
75273;BMP280;63869;52.344;16.928;2023-06-26T06:45:03;100740.41;;;23.51
75273;BMP280;63869;52.344;16.928;2023-06-26T06:47:30;100736.44;;;23.58
75273;BMP280;63869;52.344;16.928;2023-06-26T06:49:55;100731.22;;;23.66
75273;BMP280;63869;52.344;16.928;2023-06-26T06:52:21;100725.22;;;23.73
75273;BMP280;63869;52.344;16.928;2023-06-26T06:54:53;100729.22;;;23.83
75273;BMP280;63869;52.344;16.928;2023-06-26T06:57:20;100720.25;;;23.93
75273;BMP280;63869;52.344;16.928;2023-06-26T06:59:45;100719.94;;;24.02
75273;BMP280;63869;52.344;16.928;2023-06-26T07:02:12;100721.91;;;24.13
75273;BMP280;63869;52.344;16.928;2023-06-26T07:04:38;100726.31;;;24.22
75273;BMP280;63869;52.344;16.928;2023-06-26T07:07:03;100724.53;;;24.30
75273;BMP280;63869;52.344;16.928;2023-06-26T07:09:29;100715.31;;;24.38
75273;BMP280;63869;52.344;16.928;2023-06-26T07:11:54;100723.47;;;24.49
75273;BMP280;63869;52.344;16.928;2023-06-26T07:14:19;100718.72;;;24.56
75273;BMP280;63869;52.344;16.928;2023-06-26T07:16:45;100713.91;;;24.67
75273;BMP280;63869;52.344;16.928;2023-06-26T07:19:10;100716.09;;;24.74
75273;BMP280;63869;52.344;16.928;2023-06-26T07:21:35;100715.28;;;24.85
75273;BMP280;63869;52.344;16.928;2023-06-26T07:24:01;100710.22;;;24.94
75273;BMP280;63869;52.344;16.928;2023-06-26T07:26:26;100711.91;;;25.03
75273;BMP280;63869;52.344;16.928;2023-06-26T07:28:52;100712.06;;;25.11
75273;BMP280;63869;52.344;16.928;2023-06-26T07:31:18;100706.53;;;25.16
75273;BMP280;63869;52.344;16.928;2023-06-26T07:33:43;100706.72;;;25.24
75273;BMP280;63869;52.344;16.928;2023-06-26T07:36:09;100702.16;;;25.32
75273;BMP280;63869;52.344;16.928;2023-06-26T07:38:34;100701.38;;;25.37
75273;BMP280;63869;52.344;16.928;2023-06-26T07:41:00;100711.75;;;25.44
75273;BMP280;63869;52.344;16.928;2023-06-26T07:43:25;100702.22;;;25.51
75273;BMP280;63869;52.344;16.928;2023-06-26T07:45:50;100699.72;;;25.53
75273;BMP280;63869;52.344;16.928;2023-06-26T07:48:18;100696.47;;;25.54
75273;BMP280;63869;52.344;16.928;2023-06-26T07:50:44;100695.88;;;25.61
75273;BMP280;63869;52.344;16.928;2023-06-26T07:53:09;100696.81;;;25.69
75273;BMP280;63869;52.344;16.928;2023-06-26T07:55:34;100700.28;;;25.70
75273;BMP280;63869;52.344;16.928;2023-06-26T07:57:59;100697.69;;;25.77
75273;BMP280;63869;52.344;16.928;2023-06-26T08:00:26;100699.66;;;25.82
75273;BMP280;63869;52.344;16.928;2023-06-26T08:02:51;100696.63;;;25.86
75273;BMP280;63869;52.344;16.928;2023-06-26T08:05:16;100699.72;;;25.96
75273;BMP280;63869;52.344;16.928;2023-06-26T08:07:42;100698.41;;;26.02
75273;BMP280;63869;52.344;16.928;2023-06-26T08:10:08;100697.25;;;26.11
75273;BMP280;63869;52.344;16.928;2023-06-26T08:12:33;100694.19;;;26.20
75273;BMP280;63869;52.344;16.928;2023-06-26T08:14:59;100686.53;;;26.31
75273;BMP280;63869;52.344;16.928;2023-06-26T08:17:26;100691.84;;;26.43
75273;BMP280;63869;52.344;16.928;2023-06-26T08:19:51;100684.28;;;26.49
75273;BMP280;63869;52.344;16.928;2023-06-26T08:22:16;100686.94;;;26.54
75273;BMP280;63869;52.344;16.928;2023-06-26T08:24:41;100682.31;;;26.62
75273;BMP280;63869;52.344;16.928;2023-06-26T08:27:07;100682.97;;;26.68
75273;BMP280;63869;52.344;16.928;2023-06-26T08:29:33;100682.63;;;26.72
75273;BMP280;63869;52.344;16.928;2023-06-26T08:31:58;100676.34;;;26.77
75273;BMP280;63869;52.344;16.928;2023-06-26T08:34:24;100679.22;;;26.85
75273;BMP280;63869;52.344;16.928;2023-06-26T08:36:49;100672.88;;;26.90
75273;BMP280;63869;52.344;16.928;2023-06-26T08:39:15;100671.94;;;27.00
75273;BMP280;63869;52.344;16.928;2023-06-26T08:41:41;100670.34;;;27.05
75273;BMP280;63869;52.344;16.928;2023-06-26T08:44:07;100670.06;;;27.08
75273;BMP280;63869;52.344;16.928;2023-06-26T08:46:33;100668.47;;;27.13
75273;BMP280;63869;52.344;16.928;2023-06-26T08:49:14;100667.41;;;27.16
75273;BMP280;63869;52.344;16.928;2023-06-26T08:51:42;100660.13;;;27.18
75273;BMP280;63869;52.344;16.928;2023-06-26T08:54:11;100653.25;;;27.25
75273;BMP280;63869;52.344;16.928;2023-06-26T08:56:42;100655.28;;;27.38
75273;BMP280;63869;52.344;16.928;2023-06-26T08:59:10;100659.78;;;27.48
75273;BMP280;63869;52.344;16.928;2023-06-26T09:01:37;100654.50;;;27.50
75273;BMP280;63869;52.344;16.928;2023-06-26T09:04:03;100654.91;;;27.54
75273;BMP280;63869;52.344;16.928;2023-06-26T09:06:29;100659.16;;;27.55
75273;BMP280;63869;52.344;16.928;2023-06-26T09:08:55;100656.63;;;27.57
75273;BMP280;63869;52.344;16.928;2023-06-26T09:11:21;100653.53;;;27.61
75273;BMP280;63869;52.344;16.928;2023-06-26T09:13:46;100654.81;;;27.73
75273;BMP280;63869;52.344;16.928;2023-06-26T09:16:12;100648.28;;;27.84
75273;BMP280;63869;52.344;16.928;2023-06-26T09:18:40;100647.44;;;27.89
75273;BMP280;63869;52.344;16.928;2023-06-26T09:21:08;100642.19;;;27.98
75273;BMP280;63869;52.344;16.928;2023-06-26T09:23:34;100637.75;;;28.08
75273;BMP280;63869;52.344;16.928;2023-06-26T09:26:05;100640.34;;;28.14
75273;BMP280;63869;52.344;16.928;2023-06-26T09:28:32;100639.59;;;28.13
75273;BMP280;63869;52.344;16.928;2023-06-26T09:31:05;100633.66;;;28.02
75273;BMP280;63869;52.344;16.928;2023-06-26T09:33:34;100638.00;;;27.97
75273;BMP280;63869;52.344;16.928;2023-06-26T09:36:07;100629.66;;;27.90
75273;BMP280;63869;52.344;16.928;2023-06-26T09:38:34;100630.00;;;27.86
75273;BMP280;63869;52.344;16.928;2023-06-26T09:40:59;100631.47;;;27.87
75273;BMP280;63869;52.344;16.928;2023-06-26T09:43:24;100625.22;;;28.00
75273;BMP280;63869;52.344;16.928;2023-06-26T09:45:51;100636.53;;;28.17
75273;BMP280;63869;52.344;16.928;2023-06-26T09:48:16;100630.31;;;28.37
75273;BMP280;63869;52.344;16.928;2023-06-26T09:50:42;100622.75;;;28.58
75273;BMP280;63869;52.344;16.928;2023-06-26T09:53:08;100631.00;;;28.79
75273;BMP280;63869;52.344;16.928;2023-06-26T09:55:39;100634.94;;;28.99
75273;BMP280;63869;52.344;16.928;2023-06-26T09:58:06;100630.44;;;29.16
75273;BMP280;63869;52.344;16.928;2023-06-26T10:00:32;100617.41;;;29.17
75273;BMP280;63869;52.344;16.928;2023-06-26T10:02:58;100615.75;;;29.14
75273;BMP280;63869;52.344;16.928;2023-06-26T10:05:24;100615.34;;;29.10
75273;BMP280;63869;52.344;16.928;2023-06-26T10:07:49;100616.25;;;29.05
75273;BMP280;63869;52.344;16.928;2023-06-26T10:10:16;100611.25;;;29.03
75273;BMP280;63869;52.344;16.928;2023-06-26T10:12:45;100613.66;;;29.07
75273;BMP280;63869;52.344;16.928;2023-06-26T10:15:13;100609.84;;;29.10
75273;BMP280;63869;52.344;16.928;2023-06-26T10:17:42;100612.00;;;29.04
75273;BMP280;63869;52.344;16.928;2023-06-26T10:20:08;100611.81;;;29.02
75273;BMP280;63869;52.344;16.928;2023-06-26T10:22:43;100611.31;;;29.11
75273;BMP280;63869;52.344;16.928;2023-06-26T10:25:10;100608.47;;;29.32
75273;BMP280;63869;52.344;16.928;2023-06-26T10:27:45;100602.63;;;29.50
75273;BMP280;63869;52.344;16.928;2023-06-26T10:30:16;100605.63;;;29.67
75273;BMP280;63869;52.344;16.928;2023-06-26T10:32:42;100601.97;;;29.80
75273;BMP280;63869;52.344;16.928;2023-06-26T10:35:10;100599.38;;;29.82
75273;BMP280;63869;52.344;16.928;2023-06-26T10:37:47;100600.88;;;29.91
75273;BMP280;63869;52.344;16.928;2023-06-26T10:40:15;100595.53;;;30.08
75273;BMP280;63869;52.344;16.928;2023-06-26T10:42:45;100589.84;;;30.06
75273;BMP280;63869;52.344;16.928;2023-06-26T10:45:15;100593.16;;;30.12
75273;BMP280;63869;52.344;16.928;2023-06-26T10:47:41;100590.56;;;30.14
75273;BMP280;63869;52.344;16.928;2023-06-26T10:50:24;100578.25;;;30.22
75273;BMP280;63869;52.344;16.928;2023-06-26T10:55:44;100586.53;;;30.30
75273;BMP280;63869;52.344;16.928;2023-06-26T11:03:40;100578.03;;;30.28
75273;BMP280;63869;52.344;16.928;2023-06-26T11:11:11;100579.91;;;30.10
75273;BMP280;63869;52.344;16.928;2023-06-26T11:13:37;100572.91;;;30.09
75273;BMP280;63869;52.344;16.928;2023-06-26T11:16:02;100564.81;;;30.11
75273;BMP280;63869;52.344;16.928;2023-06-26T11:18:28;100557.66;;;30.16
75273;BMP280;63869;52.344;16.928;2023-06-26T11:21:04;100559.31;;;30.19
75273;BMP280;63869;52.344;16.928;2023-06-26T11:23:30;100557.28;;;30.19
75273;BMP280;63869;52.344;16.928;2023-06-26T11:25:57;100556.75;;;30.21
75273;BMP280;63869;52.344;16.928;2023-06-26T11:28:22;100553.59;;;30.17
75273;BMP280;63869;52.344;16.928;2023-06-26T11:30:48;100544.56;;;30.16
75273;BMP280;63869;52.344;16.928;2023-06-26T11:33:13;100546.25;;;30.19
75273;BMP280;63869;52.344;16.928;2023-06-26T11:35:39;100536.84;;;30.22
75273;BMP280;63869;52.344;16.928;2023-06-26T11:38:05;100538.13;;;30.29
75273;BMP280;63869;52.344;16.928;2023-06-26T11:40:34;100535.72;;;30.33
75273;BMP280;63869;52.344;16.928;2023-06-26T11:43:02;100528.69;;;30.47
75273;BMP280;63869;52.344;16.928;2023-06-26T11:45:29;100529.75;;;30.59
75273;BMP280;63869;52.344;16.928;2023-06-26T11:47:56;100538.16;;;30.77
75273;BMP280;63869;52.344;16.928;2023-06-26T11:50:22;100534.44;;;30.89
75273;BMP280;63869;52.344;16.928;2023-06-26T11:52:57;100525.03;;;30.92
75273;BMP280;63869;52.344;16.928;2023-06-26T11:55:24;100524.81;;;30.98
75273;BMP280;63869;52.344;16.928;2023-06-26T11:57:53;100523.69;;;31.01
75273;BMP280;63869;52.344;16.928;2023-06-26T12:00:19;100519.22;;;31.13
75273;BMP280;63869;52.344;16.928;2023-06-26T12:02:45;100515.31;;;31.41
75273;BMP280;63869;52.344;16.928;2023-06-26T12:05:15;100517.25;;;31.72
75273;BMP280;63869;52.344;16.928;2023-06-26T12:07:42;100511.47;;;32.03
75273;BMP280;63869;52.344;16.928;2023-06-26T12:10:10;100504.06;;;32.22
75273;BMP280;63869;52.344;16.928;2023-06-26T12:12:36;100497.78;;;32.39
75273;BMP280;63869;52.344;16.928;2023-06-26T12:15:02;100499.66;;;32.63
75273;BMP280;63869;52.344;16.928;2023-06-26T12:17:27;100499.53;;;32.88
75273;BMP280;63869;52.344;16.928;2023-06-26T12:19:53;100492.09;;;33.27
75273;BMP280;63869;52.344;16.928;2023-06-26T12:22:19;100488.38;;;33.70
75273;BMP280;63869;52.344;16.928;2023-06-26T12:24:45;100501.81;;;33.74
75273;BMP280;63869;52.344;16.928;2023-06-26T12:27:13;100492.28;;;33.48
75273;BMP280;63869;52.344;16.928;2023-06-26T12:29:49;100492.47;;;33.50
75273;BMP280;63869;52.344;16.928;2023-06-26T12:32:15;100496.16;;;33.26
75273;BMP280;63869;52.344;16.928;2023-06-26T12:34:41;100491.97;;;32.89
75273;BMP280;63869;52.344;16.928;2023-06-26T12:37:11;100487.81;;;32.36
75273;BMP280;63869;52.344;16.928;2023-06-26T12:39:49;100496.16;;;31.85
75273;BMP280;63869;52.344;16.928;2023-06-26T12:42:17;100494.88;;;31.61
75273;BMP280;63869;52.344;16.928;2023-06-26T12:44:42;100492.00;;;31.02
75273;BMP280;63869;52.344;16.928;2023-06-26T12:47:08;100482.25;;;30.68
75273;BMP280;63869;52.344;16.928;2023-06-26T12:49:38;100490.81;;;30.33
75273;BMP280;63869;52.344;16.928;2023-06-26T12:52:05;100492.53;;;30.05
75273;BMP280;63869;52.344;16.928;2023-06-26T12:54:32;100491.66;;;29.73
75273;BMP280;63869;52.344;16.928;2023-06-26T12:56:58;100484.47;;;29.62
75273;BMP280;63869;52.344;16.928;2023-06-26T12:59:23;100494.94;;;29.48
75273;BMP280;63869;52.344;16.928;2023-06-26T13:01:49;100493.81;;;29.36
75273;BMP280;63869;52.344;16.928;2023-06-26T13:04:15;100485.59;;;29.44
75273;BMP280;63869;52.344;16.928;2023-06-26T13:06:40;100489.81;;;29.52
75273;BMP280;63869;52.344;16.928;2023-06-26T13:09:06;100480.28;;;29.76
75273;BMP280;63869;52.344;16.928;2023-06-26T13:11:32;100483.13;;;30.23
75273;BMP280;63869;52.344;16.928;2023-06-26T13:13:58;100470.84;;;30.97
75273;BMP280;63869;52.344;16.928;2023-06-26T13:16:23;100466.75;;;31.72
75273;BMP280;63869;52.344;16.928;2023-06-26T13:18:48;100465.50;;;32.34
75273;BMP280;63869;52.344;16.928;2023-06-26T13:21:15;100472.44;;;32.69
75273;BMP280;63869;52.344;16.928;2023-06-26T13:23:43;100465.13;;;33.01
75273;BMP280;63869;52.344;16.928;2023-06-26T13:26:10;100457.41;;;33.74
75273;BMP280;63869;52.344;16.928;2023-06-26T13:28:36;100452.88;;;34.57
75273;BMP280;63869;52.344;16.928;2023-06-26T13:31:02;100447.94;;;35.38
75273;BMP280;63869;52.344;16.928;2023-06-26T13:33:27;100442.97;;;36.02
75273;BMP280;63869;52.344;16.928;2023-06-26T13:35:52;100433.72;;;36.67
75273;BMP280;63869;52.344;16.928;2023-06-26T13:38:22;100435.72;;;36.90
75273;BMP280;63869;52.344;16.928;2023-06-26T13:40:52;100432.00;;;36.51
75273;BMP280;63869;52.344;16.928;2023-06-26T13:43:20;100422.44;;;36.31
75273;BMP280;63869;52.344;16.928;2023-06-26T13:45:46;100424.50;;;36.18
75273;BMP280;63869;52.344;16.928;2023-06-26T13:48:11;100416.69;;;36.05
75273;BMP280;63869;52.344;16.928;2023-06-26T13:50:36;100413.31;;;35.30
75273;BMP280;63869;52.344;16.928;2023-06-26T13:53:01;100424.75;;;34.72
75273;BMP280;63869;52.344;16.928;2023-06-26T13:55:27;100416.75;;;34.17
75273;BMP280;63869;52.344;16.928;2023-06-26T13:57:52;100410.81;;;34.01